Time;durP1;ratioP1;P1;durP2;ratioP2;P2;SDS_P1;SDS_P2;PMS_P1;PMS_P2;Temp;Humidity;BMP_temperature;BMP_pressure;BME280_temperature;BME280_humidity;BME280_pressure;Samples;Min_cycle;Max_cycle;Signal;HPM_P1;HPM_P2
2022/01/11 00:01:07;;;;;;;;;;;9.40;99.90;;;;;;5072632;28;20286;-79
2022/01/11 00:03:33;;;;;;;;;;;9.40;99.90;;;;;;5072912;28;19978;-78
2022/01/11 00:06:16;;;;;;;;;;;9.40;99.90;;;;;;5072967;28;19919;-78
2022/01/11 00:08:44;;;;;;;;;;;9.40;99.90;;;;;;5072871;28;19908;-79
2022/01/11 00:11:10;;;;;;;;;;;9.40;99.90;;;;;;5072314;28;19909;-80
2022/01/11 00:13:36;;;;;;;;;;;9.40;99.90;;;;;;5072667;28;20037;-78
2022/01/11 00:16:02;;;;;;;;;;;9.30;99.90;;;;;;5072980;28;19908;-78
2022/01/11 00:18:28;;;;;;;;;;;9.40;99.90;;;;;;5072690;28;19908;-79
2022/01/11 00:20:55;;;;;;;;;;;9.40;99.90;;;;;;5072354;28;19915;-78
2022/01/11 00:25:50;;;;;;;;;;;9.30;99.90;;;;;;5072686;28;19916;-78
2022/01/11 00:28:17;;;;;;;;;;;9.30;99.90;;;;;;5072373;28;19913;-79
2022/01/11 00:30:44;;;;;;;;;;;9.30;99.90;;;;;;5072356;28;19909;-79
2022/01/11 00:33:15;;;;;;;;;;;9.40;99.90;;;;;;5071040;28;20361;-78
2022/01/11 00:35:43;;;;;;;;;;;9.30;99.90;;;;;;5071020;28;19931;-79
2022/01/11 00:38:10;;;;;;;;;;;9.30;99.90;;;;;;5072607;28;19909;-78
2022/01/11 00:40:36;;;;;;;;;;;9.30;99.90;;;;;;5070867;28;19909;-79
2022/01/11 00:43:02;;;;;;;;;;;9.30;99.90;;;;;;5072481;28;19958;-78
2022/01/11 00:45:27;;;;;;;;;;;9.20;99.90;;;;;;5074532;28;20010;-79
2022/01/11 00:47:54;;;;;;;;;;;9.30;99.90;;;;;;5076203;28;19978;-78
2022/01/11 00:50:19;;;;;;;;;;;9.30;99.90;;;;;;5074583;28;20344;-78
2022/01/11 00:52:45;;;;;;;;;;;9.20;99.90;;;;;;5076093;28;19948;-78
2022/01/11 00:55:11;;;;;;;;;;;9.30;99.90;;;;;;5076095;28;20050;-77
2022/01/11 00:57:36;;;;;;;;;;;9.20;99.90;;;;;;5074437;28;19913;-78
2022/01/11 01:00:08;;;;;;;;;;;9.10;99.90;;;;;;5076006;28;19908;-80
2022/01/11 01:02:34;;;;;;;;;;;9.20;99.90;;;;;;5074399;28;20002;-80
2022/01/11 01:04:59;;;;;;;;;;;9.20;99.90;;;;;;5075806;28;19909;-78
2022/01/11 01:07:25;;;;;;;;;;;9.20;99.90;;;;;;5075774;28;19909;-78
2022/01/11 01:10:06;;;;;;;;;;;9.20;99.90;;;;;;5075744;28;20411;-79
2022/01/11 01:12:32;;;;;;;;;;;9.20;99.90;;;;;;5075213;28;20015;-80
2022/01/11 01:14:57;;;;;;;;;;;9.20;99.90;;;;;;5075538;28;19982;-79
2022/01/11 01:17:23;;;;;;;;;;;9.20;99.90;;;;;;5074437;28;19909;-78
2022/01/11 01:19:48;;;;;;;;;;;9.20;99.90;;;;;;5075562;28;19908;-79
2022/01/11 01:22:14;;;;;;;;;;;9.30;99.90;;;;;;5075217;28;19999;-79
2022/01/11 01:24:40;;;;;;;;;;;9.20;99.90;;;;;;5074227;28;19930;-80
2022/01/11 01:27:06;;;;;;;;;;;9.20;99.90;;;;;;5075321;28;19917;-78
2022/01/11 01:29:32;;;;;;;;;;;9.30;99.90;;;;;;5075447;28;19908;-79
2022/01/11 01:31:58;;;;;;;;;;;9.30;99.90;;;;;;5074999;28;19908;-79
2022/01/11 01:34:24;;;;;;;;;;;9.40;99.90;;;;;;5075560;28;19958;-79
2022/01/11 01:36:50;;;;;;;;;;;9.40;99.90;;;;;;5075280;28;20329;-79
2022/01/11 01:39:16;;;;;;;;;;;9.40;99.90;;;;;;5075509;28;19999;-79
2022/01/11 01:47:07;;;;;;;;;;;9.40;99.90;;;;;;5241139;23;19948;-81
2022/01/11 01:54:43;;;;;;;;;;;9.30;99.90;;;;;;3741000;26;19973;-79
2022/01/11 01:57:09;;;;;;;;;;;9.20;99.90;;;;;;4956424;29;20389;-78
2022/01/11 01:59:35;;;;;;;;;;;9.20;99.90;;;;;;4955710;29;20389;-79
2022/01/11 02:02:01;;;;;;;;;;;9.10;99.90;;;;;;4956057;28;20049;-79
2022/01/11 02:04:27;;;;;;;;;;;9.20;99.90;;;;;;4956901;29;19969;-79
2022/01/11 02:06:52;;;;;;;;;;;9.10;99.90;;;;;;4956732;29;20295;-78
2022/01/11 02:09:18;;;;;;;;;;;9.10;99.90;;;;;;4955206;29;19993;-78
2022/01/11 02:11:45;;;;;;;;;;;9.10;99.90;;;;;;4955437;28;19917;-79
2022/01/11 02:14:11;;;;;;;;;;;9.00;99.90;;;;;;4975955;28;19921;-80
2022/01/11 02:16:37;;;;;;;;;;;9.00;99.90;;;;;;4975911;28;19910;-78
2022/01/11 02:19:03;;;;;;;;;;;9.00;99.90;;;;;;4975826;28;19952;-80
2022/01/11 02:21:28;;;;;;;;;;;9.00;99.90;;;;;;4967878;28;19942;-79
2022/01/11 02:23:55;;;;;;;;;;;9.00;99.90;;;;;;4956475;29;19915;-79
2022/01/11 02:26:21;;;;;;;;;;;8.90;99.90;;;;;;4956308;29;19922;-78
2022/01/11 02:28:46;;;;;;;;;;;9.00;99.90;;;;;;4956402;29;20370;-79
2022/01/11 02:31:12;;;;;;;;;;;9.00;99.90;;;;;;4955957;28;19942;-79
2022/01/11 02:33:42;;;;;;;;;;;9.00;99.90;;;;;;4956306;29;19910;-79
2022/01/11 02:36:09;;;;;;;;;;;9.00;99.90;;;;;;4956120;29;19910;-79
2022/01/11 02:38:35;;;;;;;;;;;9.10;99.90;;;;;;4956214;29;19917;-79
2022/01/11 02:41:01;;;;;;;;;;;9.00;99.90;;;;;;4955849;28;19941;-78
2022/01/11 02:43:27;;;;;;;;;;;9.00;99.90;;;;;;4937343;28;20327;-79
2022/01/11 02:45:53;;;;;;;;;;;9.10;99.90;;;;;;4955889;29;19915;-79
2022/01/11 02:48:19;;;;;;;;;;;9.20;99.90;;;;;;4955943;29;19918;-79
2022/01/11 02:50:48;;;;;;;;;;;9.10;99.90;;;;;;4955756;28;19910;-78
2022/01/11 02:53:14;;;;;;;;;;;9.20;99.90;;;;;;4955635;29;20402;-79
2022/01/11 02:55:41;;;;;;;;;;;9.20;99.90;;;;;;4956474;29;19918;-78
2022/01/11 02:58:07;;;;;;;;;;;9.20;99.90;;;;;;4955610;29;20404;-79
2022/01/11 03:00:33;;;;;;;;;;;9.20;99.90;;;;;;4956015;29;19911;-79
2022/01/11 03:03:17;;;;;;;;;;;9.20;99.90;;;;;;4955224;28;19998;-80
2022/01/11 03:05:47;;;;;;;;;;;9.00;99.90;;;;;;4955706;29;20015;-79
2022/01/11 03:08:14;;;;;;;;;;;9.00;99.90;;;;;;4955334;29;19917;-79
2022/01/11 03:10:39;;;;;;;;;;;9.00;99.90;;;;;;4955714;29;19950;-78
2022/01/11 03:13:06;;;;;;;;;;;9.00;99.90;;;;;;4955005;28;19993;-80
2022/01/11 03:15:32;;;;;;;;;;;9.00;99.90;;;;;;4938369;29;19965;-79
2022/01/11 03:17:57;;;;;;;;;;;9.10;99.90;;;;;;4955548;29;19910;-79
2022/01/11 03:20:23;;;;;;;;;;;9.10;99.90;;;;;;4955288;29;19918;-79
2022/01/11 03:22:49;;;;;;;;;;;9.10;99.90;;;;;;4954967;28;19942;-78
2022/01/11 03:25:16;;;;;;;;;;;9.10;99.90;;;;;;4955310;29;19914;-79
2022/01/11 03:27:42;;;;;;;;;;;9.00;99.90;;;;;;4955221;29;19911;-80
2022/01/11 03:30:08;;;;;;;;;;;9.00;99.90;;;;;;4955373;29;19922;-80
2022/01/11 03:32:34;;;;;;;;;;;9.00;99.90;;;;;;4954707;28;19953;-79
2022/01/11 03:34:59;;;;;;;;;;;9.10;99.90;;;;;;4955359;29;19911;-79
2022/01/11 03:37:25;;;;;;;;;;;9.10;99.90;;;;;;4955237;29;19911;-78
2022/01/11 03:39:50;;;;;;;;;;;9.10;99.90;;;;;;4953974;29;20057;-80
2022/01/11 03:42:16;;;;;;;;;;;9.10;99.90;;;;;;4937554;29;20397;-80
2022/01/11 03:44:41;;;;;;;;;;;9.20;99.90;;;;;;4936525;28;19933;-79
2022/01/11 03:47:07;;;;;;;;;;;9.10;99.90;;;;;;4955168;29;19962;-78
2022/01/11 03:49:33;;;;;;;;;;;9.10;99.90;;;;;;4955106;29;19917;-78
2022/01/11 03:51:59;;;;;;;;;;;9.10;99.90;;;;;;4954783;28;20413;-78
2022/01/11 03:54:28;;;;;;;;;;;9.10;99.90;;;;;;4954843;29;19922;-79
2022/01/11 03:56:54;;;;;;;;;;;8.90;99.90;;;;;;4955324;29;19910;-79
2022/01/11 03:59:20;;;;;;;;;;;9.00;99.90;;;;;;4955037;29;19965;-80
2022/01/11 04:01:46;;;;;;;;;;;8.90;99.90;;;;;;4954671;28;19910;-80
2022/01/11 04:04:12;;;;;;;;;;;9.00;99.90;;;;;;4954997;29;19940;-78
2022/01/11 04:06:38;;;;;;;;;;;9.00;99.90;;;;;;4954900;29;20001;-80
2022/01/11 04:09:05;;;;;;;;;;;9.10;99.90;;;;;;4954782;29;19914;-78
2022/01/11 04:11:31;;;;;;;;;;;9.10;99.90;;;;;;4954507;28;19954;-80
2022/01/11 04:13:56;;;;;;;;;;;9.10;99.90;;;;;;4954986;29;19962;-79
2022/01/11 04:16:22;;;;;;;;;;;9.20;99.90;;;;;;4954889;29;19910;-78
2022/01/11 04:18:47;;;;;;;;;;;9.20;99.90;;;;;;4956247;28;19911;-80
2022/01/11 04:21:13;;;;;;;;;;;9.20;99.90;;;;;;4958223;28;19910;-79
2022/01/11 04:23:39;;;;;;;;;;;9.30;99.90;;;;;;4958651;29;19910;-80
2022/01/11 04:26:05;;;;;;;;;;;9.30;99.90;;;;;;4958552;29;19921;-78
2022/01/11 04:28:31;;;;;;;;;;;9.30;99.90;;;;;;4958481;29;20372;-78
2022/01/11 04:30:58;;;;;;;;;;;9.30;99.90;;;;;;4958503;29;19910;-80
2022/01/11 04:33:24;;;;;;;;;;;9.20;99.90;;;;;;4956598;28;19910;-78
2022/01/11 04:35:50;;;;;;;;;;;9.20;99.90;;;;;;4958420;29;19910;-78
2022/01/11 04:38:17;;;;;;;;;;;9.20;99.90;;;;;;4957108;29;19911;-78
2022/01/11 04:40:42;;;;;;;;;;;9.20;99.90;;;;;;4956801;29;19918;-79
2022/01/11 04:43:08;;;;;;;;;;;9.10;99.90;;;;;;4957918;28;19911;-78
2022/01/11 04:45:33;;;;;;;;;;;9.00;99.90;;;;;;4939287;29;19919;-78
2022/01/11 04:47:59;;;;;;;;;;;8.90;99.90;;;;;;4958228;29;19911;-78
2022/01/11 04:50:26;;;;;;;;;;;9.00;99.90;;;;;;4958128;29;19917;-79
2022/01/11 04:52:51;;;;;;;;;;;8.90;99.90;;;;;;4957710;28;19910;-79
2022/01/11 04:55:17;;;;;;;;;;;8.90;99.90;;;;;;4958180;29;20021;-77
2022/01/11 04:57:43;;;;;;;;;;;8.90;99.90;;;;;;4957902;29;20366;-79
2022/01/11 05:00:09;;;;;;;;;;;8.90;99.90;;;;;;4957932;29;20469;-79
2022/01/11 05:02:35;;;;;;;;;;;8.90;99.90;;;;;;4940311;29;19911;-80
2022/01/11 05:05:00;;;;;;;;;;;9.00;99.90;;;;;;4940641;29;19914;-78
2022/01/11 05:07:26;;;;;;;;;;;9.00;99.90;;;;;;4957847;29;19926;-79
2022/01/11 05:09:53;;;;;;;;;;;9.00;99.90;;;;;;4957745;29;20384;-78
2022/01/11 05:12:19;;;;;;;;;;;9.00;99.90;;;;;;4957347;28;19911;-78
2022/01/11 05:14:44;;;;;;;;;;;9.00;99.90;;;;;;4956390;29;19917;-79
2022/01/11 05:17:10;;;;;;;;;;;9.00;99.90;;;;;;4957892;29;19919;-79
2022/01/11 05:19:35;;;;;;;;;;;9.00;99.90;;;;;;4957537;29;20020;-79
2022/01/11 05:22:01;;;;;;;;;;;9.00;99.90;;;;;;4940057;29;19910;-79
2022/01/11 05:24:27;;;;;;;;;;;9.00;99.90;;;;;;4957520;29;20328;-80
2022/01/11 05:26:53;;;;;;;;;;;9.00;99.90;;;;;;4957311;29;20382;-78
2022/01/11 05:29:19;;;;;;;;;;;9.00;99.90;;;;;;4957113;28;19911;-78
2022/01/11 05:31:44;;;;;;;;;;;8.90;99.90;;;;;;4956268;28;19910;-78
2022/01/11 05:34:10;;;;;;;;;;;9.00;99.90;;;;;;4957408;29;20115;-79
2022/01/11 05:36:35;;;;;;;;;;;9.00;99.90;;;;;;4957441;29;19981;-78
2022/01/11 05:39:01;;;;;;;;;;;9.00;99.90;;;;;;4957332;29;19914;-79
2022/01/11 05:41:27;;;;;;;;;;;9.00;99.90;;;;;;4957008;28;19917;-79
2022/01/11 05:43:52;;;;;;;;;;;9.00;99.90;;;;;;4921218;29;20326;-79
2022/01/11 05:46:18;;;;;;;;;;;9.00;99.90;;;;;;4957184;29;19915;-80
2022/01/11 05:48:45;;;;;;;;;;;9.10;99.90;;;;;;4957159;29;19910;-78
2022/01/11 05:51:15;;;;;;;;;;;9.10;99.90;;;;;;4957129;29;19930;-78
2022/01/11 05:53:41;;;;;;;;;;;9.10;99.90;;;;;;4956644;28;19934;-79
2022/01/11 05:56:07;;;;;;;;;;;9.10;99.90;;;;;;4957664;29;19954;-78
2022/01/11 05:58:33;;;;;;;;;;;9.00;99.90;;;;;;4955765;29;20005;-79
2022/01/11 06:00:58;;;;;;;;;;;9.00;99.90;;;;;;4956927;29;20358;-80
2022/01/11 06:03:24;;;;;;;;;;;8.90;99.90;;;;;;4956549;28;19965;-79
2022/01/11 06:05:49;;;;;;;;;;;9.00;99.90;;;;;;4956754;29;19914;-78
2022/01/11 06:08:16;;;;;;;;;;;9.00;99.90;;;;;;4956651;29;19911;-80
2022/01/11 06:10:43;;;;;;;;;;;9.10;99.90;;;;;;4956767;29;19917;-80
2022/01/11 06:13:09;;;;;;;;;;;9.00;99.90;;;;;;4956209;28;19910;-78
2022/01/11 06:15:34;;;;;;;;;;;9.10;99.90;;;;;;4956765;29;19972;-78
2022/01/11 06:18:00;;;;;;;;;;;9.10;99.90;;;;;;4939249;29;19968;-80
2022/01/11 06:20:25;;;;;;;;;;;9.20;99.90;;;;;;4956429;29;20487;-79
2022/01/11 06:22:53;;;;;;;;;;;9.20;99.90;;;;;;4956093;28;19911;-80
2022/01/11 06:25:18;;;;;;;;;;;9.20;99.90;;;;;;4956435;29;20000;-80
2022/01/11 06:27:44;;;;;;;;;;;9.20;99.90;;;;;;4956244;29;20379;-78
2022/01/11 06:30:10;;;;;;;;;;;9.20;99.90;;;;;;4956409;29;20005;-80
2022/01/11 06:32:37;;;;;;;;;;;9.10;99.90;;;;;;4955951;28;19914;-78
2022/01/11 06:35:03;;;;;;;;;;;9.20;99.90;;;;;;4938929;29;19917;-80
2022/01/11 06:37:29;;;;;;;;;;;9.10;99.90;;;;;;4956198;28;20001;-80
2022/01/11 06:39:55;;;;;;;;;;;9.10;99.90;;;;;;4955854;29;20001;-79
2022/01/11 06:42:20;;;;;;;;;;;9.00;99.90;;;;;;4955244;28;19915;-80
2022/01/11 06:44:46;;;;;;;;;;;9.00;99.90;;;;;;4937374;28;19924;-79
2022/01/11 06:47:12;;;;;;;;;;;9.00;99.90;;;;;;4955899;29;19921;-79
2022/01/11 06:49:37;;;;;;;;;;;9.00;99.90;;;;;;4956207;29;19917;-78
2022/01/11 06:52:04;;;;;;;;;;;9.00;99.90;;;;;;4954220;28;19953;-80
2022/01/11 06:54:30;;;;;;;;;;;9.00;99.90;;;;;;4955703;29;19922;-79
2022/01/11 06:56:55;;;;;;;;;;;8.90;99.90;;;;;;4955491;29;19910;-79
2022/01/11 06:59:21;;;;;;;;;;;8.90;99.90;;;;;;4938400;29;20378;-78
2022/01/11 07:01:46;;;;;;;;;;;8.90;99.90;;;;;;4955373;28;19917;-78
2022/01/11 07:04:12;;;;;;;;;;;8.90;99.90;;;;;;4938243;29;19954;-79
2022/01/11 07:06:37;;;;;;;;;;;8.90;99.90;;;;;;4955580;29;19921;-79
2022/01/11 07:09:03;;;;;;;;;;;8.90;99.90;;;;;;4955281;29;19910;-80
2022/01/11 07:11:29;;;;;;;;;;;8.80;99.90;;;;;;4955439;29;19933;-79
2022/01/11 07:13:54;;;;;;;;;;;8.90;99.90;;;;;;4955600;28;20394;-79
2022/01/11 07:16:20;;;;;;;;;;;8.90;99.90;;;;;;4955368;29;19914;-79
2022/01/11 07:18:47;;;;;;;;;;;8.90;99.90;;;;;;4955802;29;19919;-79
2022/01/11 07:21:12;;;;;;;;;;;9.00;99.90;;;;;;4937984;29;19917;-78
2022/01/11 07:23:38;;;;;;;;;;;9.00;99.90;;;;;;4954933;28;20299;-78
2022/01/11 07:26:07;;;;;;;;;;;8.90;99.90;;;;;;4954946;28;19915;-79
2022/01/11 07:28:33;;;;;;;;;;;8.80;99.90;;;;;;4955383;29;19917;-79
2022/01/11 07:30:58;;;;;;;;;;;8.90;99.90;;;;;;4955430;29;19942;-78
2022/01/11 07:33:24;;;;;;;;;;;8.90;99.90;;;;;;4968317;28;20412;-80
2022/01/11 07:35:50;;;;;;;;;;;9.00;99.90;;;;;;4974648;28;19910;-78
2022/01/11 07:38:15;;;;;;;;;;;8.90;99.90;;;;;;4974548;28;20294;-78
2022/01/11 07:40:41;;;;;;;;;;;8.90;99.90;;;;;;4974573;28;20361;-80
2022/01/11 07:43:07;;;;;;;;;;;8.90;99.90;;;;;;4974127;28;19918;-78
2022/01/11 07:45:33;;;;;;;;;;;8.90;99.90;;;;;;4955764;28;19922;-79
2022/01/11 07:47:58;;;;;;;;;;;8.90;99.90;;;;;;4974541;28;19961;-79
2022/01/11 07:50:24;;;;;;;;;;;8.90;99.90;;;;;;4974697;28;19953;-79
2022/01/11 07:52:51;;;;;;;;;;;9.00;99.90;;;;;;4973425;28;19960;-79
2022/01/11 07:55:17;;;;;;;;;;;8.80;99.90;;;;;;4973892;28;19922;-80
2022/01/11 07:57:43;;;;;;;;;;;8.90;99.90;;;;;;4974205;28;19910;-79
2022/01/11 08:00:09;;;;;;;;;;;8.90;99.90;;;;;;4974416;28;19997;-78
2022/01/11 08:02:34;;;;;;;;;;;9.00;99.90;;;;;;4973970;28;19910;-79
2022/01/11 08:05:00;;;;;;;;;;;8.90;99.90;;;;;;4974385;28;19910;-79
2022/01/11 08:07:26;;;;;;;;;;;9.00;99.90;;;;;;4974098;28;20279;-77
2022/01/11 08:09:51;;;;;;;;;;;9.00;99.90;;;;;;4974355;28;19941;-78
2022/01/11 08:12:17;;;;;;;;;;;9.10;99.90;;;;;;4952970;29;20429;-78
2022/01/11 08:14:42;;;;;;;;;;;9.20;99.90;;;;;;4938503;29;19910;-79
2022/01/11 08:17:08;;;;;;;;;;;9.10;99.90;;;;;;4954790;29;19910;-79
2022/01/11 08:19:34;;;;;;;;;;;9.20;99.90;;;;;;4937515;29;19917;-81
2022/01/11 08:22:01;;;;;;;;;;;9.20;99.90;;;;;;4956086;28;19917;-81
2022/01/11 08:24:27;;;;;;;;;;;9.30;99.90;;;;;;4974735;28;19917;-79
2022/01/11 08:26:54;;;;;;;;;;;9.30;99.90;;;;;;4974774;28;19937;-79
2022/01/11 08:29:20;;;;;;;;;;;9.30;99.90;;;;;;4974748;28;19916;-79
2022/01/11 08:31:46;;;;;;;;;;;9.30;99.90;;;;;;4989592;28;20328;-78
2022/01/11 08:34:14;;;;;;;;;;;9.30;99.90;;;;;;4967117;28;19914;-77
2022/01/11 08:36:44;;;;;;;;;;;9.30;99.90;;;;;;4974296;28;19910;-79
2022/01/11 08:39:10;;;;;;;;;;;9.30;99.90;;;;;;4974698;28;19965;-79
2022/01/11 08:41:36;;;;;;;;;;;9.40;99.90;;;;;;4974493;28;20273;-79
2022/01/11 08:44:02;;;;;;;;;;;9.40;99.90;;;;;;4940333;29;19910;-78
2022/01/11 08:46:28;;;;;;;;;;;9.50;99.90;;;;;;4935991;29;19918;-78
2022/01/11 08:48:53;;;;;;;;;;;9.50;99.90;;;;;;4955408;29;19911;-79
2022/01/11 08:51:19;;;;;;;;;;;9.50;99.90;;;;;;4955210;29;19911;-79
2022/01/11 08:53:44;;;;;;;;;;;9.50;99.90;;;;;;4954643;28;20385;-80
2022/01/11 08:56:15;;;;;;;;;;;9.50;99.90;;;;;;4955110;29;19915;-79
2022/01/11 08:58:41;;;;;;;;;;;9.50;99.90;;;;;;4955721;29;19917;-79
2022/01/11 09:01:06;;;;;;;;;;;9.60;99.90;;;;;;4953989;29;19910;-80
2022/01/11 09:03:32;;;;;;;;;;;9.50;99.90;;;;;;4954934;28;19962;-79
2022/01/11 09:05:57;;;;;;;;;;;9.50;99.90;;;;;;4957810;28;19914;-79
2022/01/11 09:08:23;;;;;;;;;;;9.60;99.90;;;;;;4958422;29;20381;-79
2022/01/11 09:10:49;;;;;;;;;;;9.50;99.90;;;;;;4957184;29;19911;-79
2022/01/11 09:13:15;;;;;;;;;;;9.50;99.90;;;;;;4958047;28;19910;-78
2022/01/11 09:15:41;;;;;;;;;;;9.50;99.90;;;;;;4958998;29;19915;-79
2022/01/11 09:18:06;;;;;;;;;;;9.60;99.90;;;;;;4958337;29;19910;-78
2022/01/11 09:20:32;;;;;;;;;;;9.50;99.90;;;;;;4941275;29;19975;-79
2022/01/11 09:22:58;;;;;;;;;;;9.40;99.90;;;;;;4957689;28;19962;-79
2022/01/11 09:25:23;;;;;;;;;;;9.50;99.90;;;;;;4958383;29;20315;-80
2022/01/11 09:27:49;;;;;;;;;;;9.50;99.90;;;;;;4957913;29;19910;-79
2022/01/11 09:30:15;;;;;;;;;;;9.60;99.90;;;;;;4957970;29;20001;-80
2022/01/11 09:32:41;;;;;;;;;;;9.50;99.90;;;;;;4960496;28;19917;-78
2022/01/11 09:35:08;;;;;;;;;;;9.60;99.90;;;;;;4977603;28;19942;-79
2022/01/11 09:37:33;;;;;;;;;;;9.60;99.90;;;;;;4977260;28;20258;-79
2022/01/11 09:39:59;;;;;;;;;;;9.60;99.90;;;;;;4977252;28;19917;-78
2022/01/11 09:42:25;;;;;;;;;;;9.60;99.90;;;;;;4975077;28;19910;-79
2022/01/11 09:44:51;;;;;;;;;;;9.60;99.90;;;;;;4957657;29;20115;-80
2022/01/11 09:47:16;;;;;;;;;;;9.60;99.90;;;;;;4937877;29;19918;-80
2022/01/11 09:49:43;;;;;;;;;;;9.60;99.90;;;;;;4957657;29;19910;-78
2022/01/11 09:52:09;;;;;;;;;;;9.60;99.90;;;;;;4957618;29;20278;-78
2022/01/11 09:54:36;;;;;;;;;;;9.60;99.90;;;;;;4975711;28;19929;-78
2022/01/11 09:57:01;;;;;;;;;;;9.60;99.90;;;;;;4976866;28;19969;-78
2022/01/11 09:59:27;;;;;;;;;;;9.60;99.90;;;;;;4976930;28;19911;-79
2022/01/11 10:01:52;;;;;;;;;;;9.60;99.90;;;;;;4977278;28;19910;-79
2022/01/11 10:04:23;;;;;;;;;;;9.70;99.90;;;;;;4958937;28;20259;-79
2022/01/11 10:06:54;;;;;;;;;;;9.80;99.90;;;;;;4976677;28;19945;-79
2022/01/11 10:09:21;;;;;;;;;;;9.80;99.90;;;;;;4976845;28;19916;-79
2022/01/11 10:11:51;;;;;;;;;;;9.80;99.90;;;;;;4976800;28;19917;-79
2022/01/11 10:14:21;;;;;;;;;;;9.70;99.90;;;;;;4976804;28;19961;-78
2022/01/11 10:16:48;;;;;;;;;;;9.80;99.90;;;;;;4975837;28;19910;-79
2022/01/11 10:19:19;;;;;;;;;;;9.90;99.90;;;;;;4976578;28;19910;-79
2022/01/11 10:21:45;;;;;;;;;;;9.80;99.90;;;;;;4958938;28;19910;-78
2022/01/11 10:24:32;;;;;;;;;;;9.90;99.90;;;;;;4944424;29;20263;-80
2022/01/11 10:27:00;;;;;;;;;;;9.80;99.90;;;;;;4939725;29;19998;-79
2022/01/11 10:29:30;;;;;;;;;;;9.80;99.90;;;;;;4956980;29;19911;-79
2022/01/11 10:31:57;;;;;;;;;;;9.80;99.90;;;;;;4939523;29;20001;-79
2022/01/11 10:34:30;;;;;;;;;;;9.70;99.90;;;;;;4971259;28;19917;-80
2022/01/11 10:36:57;;;;;;;;;;;9.60;99.90;;;;;;4976297;28;19917;-79
2022/01/11 10:39:28;;;;;;;;;;;9.50;99.90;;;;;;4976371;28;19917;-80
2022/01/11 10:41:54;;;;;;;;;;;9.40;99.90;;;;;;4976232;28;20005;-80
2022/01/11 10:44:39;;;;;;;;;;;9.40;99.90;;;;;;4959198;28;19954;-80
2022/01/11 10:47:04;;;;;;;;;;;9.50;99.90;;;;;;4938128;28;19918;-79
2022/01/11 10:49:31;;;;;;;;;;;9.50;99.90;;;;;;4956965;29;19911;-79
2022/01/11 10:52:15;;;;;;;;;;;9.50;99.90;;;;;;4956632;29;19910;-79
2022/01/11 10:54:41;;;;;;;;;;;9.50;99.90;;;;;;4956138;29;20406;-79
2022/01/11 10:57:15;;;;;;;;;;;9.40;99.90;;;;;;4956488;29;19910;-80
2022/01/11 10:59:40;;;;;;;;;;;9.50;99.90;;;;;;4956427;29;19910;-80
2022/01/11 11:02:13;;;;;;;;;;;9.60;99.90;;;;;;4956601;29;19911;-78
2022/01/11 11:04:39;;;;;;;;;;;9.70;99.90;;;;;;4955631;29;19961;-79
2022/01/11 11:07:11;;;;;;;;;;;9.60;99.90;;;;;;4954696;29;19919;-80
2022/01/11 11:09:44;;;;;;;;;;;9.80;99.90;;;;;;4956250;29;20002;-79
2022/01/11 11:12:13;;;;;;;;;;;9.90;99.90;;;;;;4956478;29;19938;-79
2022/01/11 11:14:50;;;;;;;;;;;9.80;99.90;;;;;;4955850;28;20373;-80
2022/01/11 11:17:27;;;;;;;;;;;10.00;99.90;;;;;;4975436;28;19910;-79
2022/01/11 11:19:56;;;;;;;;;;;10.00;99.90;;;;;;4975216;28;20444;-80
2022/01/11 11:22:21;;;;;;;;;;;9.90;99.90;;;;;;4975297;28;19936;-80
2022/01/11 11:24:47;;;;;;;;;;;10.00;99.90;;;;;;4974892;28;20365;-79
2022/01/11 11:27:13;;;;;;;;;;;10.00;99.90;;;;;;4975336;28;19914;-79
2022/01/11 11:29:38;;;;;;;;;;;9.90;99.90;;;;;;4975515;28;20045;-79
2022/01/11 11:32:05;;;;;;;;;;;10.00;99.90;;;;;;4975071;28;19910;-80
2022/01/11 11:34:31;;;;;;;;;;;10.10;99.90;;;;;;4974590;28;20385;-79
2022/01/11 11:36:59;;;;;;;;;;;10.10;99.90;;;;;;4975230;28;19917;-79
2022/01/11 11:39:25;;;;;;;;;;;10.10;99.90;;;;;;4975467;28;19910;-79
2022/01/11 11:41:54;;;;;;;;;;;10.00;99.90;;;;;;4975140;28;19918;-79
2022/01/11 11:44:21;;;;;;;;;;;10.00;99.90;;;;;;4961103;28;19911;-79
2022/01/11 11:46:51;;;;;;;;;;;10.00;99.90;;;;;;4936999;29;19918;-79
2022/01/11 11:49:37;;;;;;;;;;;10.00;99.90;;;;;;4954205;29;19996;-80
2022/01/11 11:52:22;;;;;;;;;;;9.90;99.90;;;;;;4955810;28;20355;-80
2022/01/11 11:54:52;;;;;;;;;;;9.90;99.90;;;;;;4954448;28;20014;-80
2022/01/11 11:57:19;;;;;;;;;;;9.90;99.90;;;;;;4954339;29;19922;-79
2022/01/11 11:59:56;;;;;;;;;;;9.90;99.90;;;;;;4955749;28;20302;-79
2022/01/11 12:02:31;;;;;;;;;;;9.90;99.90;;;;;;4955639;28;20003;-80
2022/01/11 12:04:56;;;;;;;;;;;9.90;99.90;;;;;;4957058;28;19914;-79
2022/01/11 12:07:27;;;;;;;;;;;9.80;99.90;;;;;;4956304;28;19921;-79
2022/01/11 12:09:52;;;;;;;;;;;9.70;99.90;;;;;;4964715;28;19918;-79
2022/01/11 12:12:36;;;;;;;;;;;9.70;99.90;;;;;;4965816;28;20341;-81
2022/01/11 12:15:22;;;;;;;;;;;9.70;99.90;;;;;;4949902;28;19910;-81
2022/01/11 12:17:48;;;;;;;;;;;9.90;99.90;;;;;;4959766;28;19910;-80
2022/01/11 12:20:32;;;;;;;;;;;10.00;99.90;;;;;;4963990;28;19957;-79
2022/01/11 12:22:58;;;;;;;;;;;9.90;99.90;;;;;;4966239;28;19919;-80
2022/01/11 12:25:32;;;;;;;;;;;9.80;99.90;;;;;;4951425;28;19921;-81
2022/01/11 12:28:00;;;;;;;;;;;9.90;99.90;;;;;;4958769;28;19933;-80
2022/01/11 12:30:26;;;;;;;;;;;9.80;99.90;;;;;;4955429;29;19950;-79
2022/01/11 12:33:10;;;;;;;;;;;9.80;99.90;;;;;;4955340;28;19915;-81
2022/01/11 12:35:54;;;;;;;;;;;9.80;99.90;;;;;;4955476;29;19911;-79
2022/01/11 12:38:21;;;;;;;;;;;9.80;99.90;;;;;;4955308;29;19910;-79
2022/01/11 12:40:47;;;;;;;;;;;9.90;99.90;;;;;;4957085;28;19917;-80
2022/01/11 12:43:35;;;;;;;;;;;9.90;99.90;;;;;;4961355;28;19926;-80
2022/01/11 12:46:03;;;;;;;;;;;10.10;99.90;;;;;;4978379;28;19964;-80
2022/01/11 12:48:50;;;;;;;;;;;10.20;99.90;;;;;;4959416;28;19926;-79
2022/01/11 12:51:18;;;;;;;;;;;10.00;99.90;;;;;;4978435;28;20374;-79
2022/01/11 12:53:44;;;;;;;;;;;10.10;99.90;;;;;;4951506;29;19929;-80
2022/01/11 12:56:09;;;;;;;;;;;10.20;99.90;;;;;;4938553;29;19911;-80
2022/01/11 12:58:36;;;;;;;;;;;10.30;99.90;;;;;;4939946;29;19910;-79
2022/01/11 13:01:14;;;;;;;;;;;10.30;99.90;;;;;;4939572;29;19915;-78
2022/01/11 13:03:55;;;;;;;;;;;10.20;99.90;;;;;;4943002;28;19911;-80
2022/01/11 13:06:21;;;;;;;;;;;10.10;99.90;;;;;;4939606;29;19958;-79
2022/01/11 13:08:50;;;;;;;;;;;10.20;99.90;;;;;;4939097;29;19911;-80
2022/01/11 13:11:18;;;;;;;;;;;10.10;99.90;;;;;;4939443;29;20299;-80
2022/01/11 13:13:53;;;;;;;;;;;10.10;99.90;;;;;;4939169;29;20315;-79
2022/01/11 13:16:22;;;;;;;;;;;10.10;99.90;;;;;;4922532;29;19918;-79
2022/01/11 13:18:48;;;;;;;;;;;10.00;99.90;;;;;;4938882;29;20410;-79
2022/01/11 13:21:13;;;;;;;;;;;10.00;99.90;;;;;;4939348;29;19997;-79
2022/01/11 13:23:56;;;;;;;;;;;10.00;99.90;;;;;;4943829;29;19945;-79
2022/01/11 13:26:22;;;;;;;;;;;10.00;99.90;;;;;;4972783;28;20278;-80
2022/01/11 13:28:49;;;;;;;;;;;10.00;99.90;;;;;;4958283;29;19911;-79
2022/01/11 13:31:17;;;;;;;;;;;10.00;99.90;;;;;;4957898;29;20349;-80
2022/01/11 13:33:48;;;;;;;;;;;10.00;99.90;;;;;;4952574;29;19920;-78
2022/01/11 13:36:14;;;;;;;;;;;9.90;99.90;;;;;;4939127;29;19911;-79
2022/01/11 13:38:41;;;;;;;;;;;9.90;99.90;;;;;;4922064;29;19918;-79
2022/01/11 13:41:09;;;;;;;;;;;9.90;99.90;;;;;;4921731;29;19918;-79
2022/01/11 13:43:39;;;;;;;;;;;9.80;99.90;;;;;;4938286;29;19911;-80
2022/01/11 13:46:13;;;;;;;;;;;9.80;99.90;;;;;;4938710;29;20033;-78
2022/01/11 13:48:39;;;;;;;;;;;9.90;99.90;;;;;;4920169;29;19919;-79
2022/01/11 13:51:04;;;;;;;;;;;10.00;99.90;;;;;;4937401;29;20264;-79
2022/01/11 13:53:35;;;;;;;;;;;9.90;99.90;;;;;;4945045;28;19977;-79
2022/01/11 13:56:16;;;;;;;;;;;9.90;99.90;;;;;;4975548;28;20416;-79
2022/01/11 13:59:01;;;;;;;;;;;10.00;99.90;;;;;;4977192;28;19916;-79
2022/01/11 14:01:28;;;;;;;;;;;10.10;99.90;;;;;;4977254;28;19910;-78
2022/01/11 14:04:04;;;;;;;;;;;10.10;99.90;;;;;;4970882;28;19914;-79
2022/01/11 14:06:37;;;;;;;;;;;10.00;99.90;;;;;;4957205;29;19953;-80
2022/01/11 14:09:03;;;;;;;;;;;10.10;99.90;;;;;;4957355;29;19911;-80
2022/01/11 14:11:32;;;;;;;;;;;10.00;99.90;;;;;;4957364;29;19962;-79
2022/01/11 14:14:02;;;;;;;;;;;10.00;99.90;;;;;;4961799;28;19941;-79
2022/01/11 14:16:32;;;;;;;;;;;9.90;99.90;;;;;;4977471;28;19910;-79
2022/01/11 14:19:01;;;;;;;;;;;9.80;99.90;;;;;;4959334;28;19921;-79
2022/01/11 14:21:26;;;;;;;;;;;10.10;99.90;;;;;;4976037;28;19910;-79
2022/01/11 14:23:52;;;;;;;;;;;10.20;99.90;;;;;;4971049;28;20052;-79
2022/01/11 14:26:18;;;;;;;;;;;10.30;99.90;;;;;;4956832;29;20279;-79
2022/01/11 14:28:43;;;;;;;;;;;10.40;99.90;;;;;;4957145;29;20410;-79
2022/01/11 14:31:16;;;;;;;;;;;10.40;99.90;;;;;;4956883;28;19918;-79
2022/01/11 14:33:42;;;;;;;;;;;10.40;99.90;;;;;;4958558;28;19968;-79
2022/01/11 14:36:15;;;;;;;;;;;10.50;99.90;;;;;;4976547;28;19910;-79
2022/01/11 14:38:44;;;;;;;;;;;10.60;99.90;;;;;;4976415;28;19921;-79
2022/01/11 14:41:10;;;;;;;;;;;10.70;99.90;;;;;;4976481;28;19910;-79
2022/01/11 14:43:36;;;;;;;;;;;10.80;99.90;;;;;;4976019;28;19917;-79